sensor_id;sensor_type;location;lat;lon;timestamp;P1;durP1;ratioP1;P2;durP2;ratioP2
74892;SDS011;63446;56.272;43.922;2024-02-21T00:00:43;9.40;;;3.65;;
74892;SDS011;63446;56.272;43.922;2024-02-21T00:07:22;9.83;;;3.80;;
74892;SDS011;63446;56.272;43.922;2024-02-21T00:14:13;8.65;;;3.70;;
74892;SDS011;63446;56.272;43.922;2024-02-21T00:20:52;9.00;;;3.40;;
74892;SDS011;63446;56.272;43.922;2024-02-21T00:27:43;9.27;;;2.92;;
74892;SDS011;63446;56.272;43.922;2024-02-21T00:34:20;7.20;;;2.90;;
74892;SDS011;63446;56.272;43.922;2024-02-21T00:41:11;6.65;;;2.63;;
74892;SDS011;63446;56.272;43.922;2024-02-21T00:47:50;6.07;;;2.43;;
74892;SDS011;63446;56.272;43.922;2024-02-21T00:54:40;7.03;;;2.55;;
74892;SDS011;63446;56.272;43.922;2024-02-21T01:01:31;7.95;;;2.67;;
74892;SDS011;63446;56.272;43.922;2024-02-21T01:08:22;6.17;;;2.77;;
74892;SDS011;63446;56.272;43.922;2024-02-21T01:15:13;5.28;;;2.47;;
74892;SDS011;63446;56.272;43.922;2024-02-21T01:22:02;7.00;;;2.45;;
74892;SDS011;63446;56.272;43.922;2024-02-21T01:28:54;5.78;;;2.38;;
74892;SDS011;63446;56.272;43.922;2024-02-21T01:35:45;5.70;;;2.28;;
74892;SDS011;63446;56.272;43.922;2024-02-21T01:42:39;7.10;;;2.57;;
74892;SDS011;63446;56.272;43.922;2024-02-21T01:49:30;4.53;;;2.20;;
74892;SDS011;63446;56.272;43.922;2024-02-21T02:00:45;5.80;;;2.10;;
74892;SDS011;63446;56.272;43.922;2024-02-21T02:07:37;7.40;;;2.50;;
74892;SDS011;63446;56.272;43.922;2024-02-21T02:14:29;4.63;;;1.98;;
74892;SDS011;63446;56.272;43.922;2024-02-21T02:21:27;4.50;;;1.90;;
74892;SDS011;63446;56.272;43.922;2024-02-21T02:32:47;7.20;;;2.22;;
74892;SDS011;63446;56.272;43.922;2024-02-21T02:39:39;6.43;;;2.50;;
74892;SDS011;63446;56.272;43.922;2024-02-21T02:46:29;8.00;;;2.07;;
74892;SDS011;63446;56.272;43.922;2024-02-21T02:53:19;3.67;;;1.23;;
74892;SDS011;63446;56.272;43.922;2024-02-21T03:04:46;3.90;;;1.20;;
74892;SDS011;63446;56.272;43.922;2024-02-21T03:11:36;4.28;;;1.60;;
74892;SDS011;63446;56.272;43.922;2024-02-21T03:18:30;6.47;;;1.50;;
74892;SDS011;63446;56.272;43.922;2024-02-21T03:25:21;5.65;;;1.38;;
74892;SDS011;63446;56.272;43.922;2024-02-21T03:32:11;4.10;;;1.60;;
74892;SDS011;63446;56.272;43.922;2024-02-21T03:39:02;4.63;;;1.60;;
74892;SDS011;63446;56.272;43.922;2024-02-21T03:45:55;3.90;;;1.40;;
74892;SDS011;63446;56.272;43.922;2024-02-21T03:52:45;3.95;;;1.55;;
74892;SDS011;63446;56.272;43.922;2024-02-21T04:04:00;6.47;;;1.90;;
74892;SDS011;63446;56.272;43.922;2024-02-21T04:10:51;9.43;;;2.10;;
74892;SDS011;63446;56.272;43.922;2024-02-21T04:17:41;6.25;;;2.47;;
74892;SDS011;63446;56.272;43.922;2024-02-21T04:24:31;7.27;;;2.17;;
74892;SDS011;63446;56.272;43.922;2024-02-21T04:31:22;4.97;;;1.77;;
74892;SDS011;63446;56.272;43.922;2024-02-21T04:38:12;4.33;;;1.40;;
74892;SDS011;63446;56.272;43.922;2024-02-21T04:45:05;4.95;;;1.33;;
74892;SDS011;63446;56.272;43.922;2024-02-21T04:51:56;5.15;;;1.70;;
74892;SDS011;63446;56.272;43.922;2024-02-21T04:58:47;4.13;;;1.52;;
74892;SDS011;63446;56.272;43.922;2024-02-21T05:05:38;5.13;;;2.10;;
74892;SDS011;63446;56.272;43.922;2024-02-21T05:12:28;6.32;;;1.75;;
74892;SDS011;63446;56.272;43.922;2024-02-21T05:19:19;6.22;;;2.30;;
74892;SDS011;63446;56.272;43.922;2024-02-21T05:26:11;6.93;;;2.70;;
74892;SDS011;63446;56.272;43.922;2024-02-21T05:33:11;6.00;;;2.38;;
74892;SDS011;63446;56.272;43.922;2024-02-21T05:40:04;8.93;;;4.03;;
74892;SDS011;63446;56.272;43.922;2024-02-21T05:46:54;5.63;;;2.17;;
74892;SDS011;63446;56.272;43.922;2024-02-21T05:53:46;9.68;;;2.85;;
74892;SDS011;63446;56.272;43.922;2024-02-21T06:05:01;7.55;;;2.10;;
74892;SDS011;63446;56.272;43.922;2024-02-21T06:11:53;6.93;;;2.55;;
74892;SDS011;63446;56.272;43.922;2024-02-21T06:14:20;7.30;;;2.63;;
74892;SDS011;63446;56.272;43.922;2024-02-21T06:20:57;6.82;;;2.47;;
74892;SDS011;63446;56.272;43.922;2024-02-21T06:23:24;12.35;;;2.80;;
74892;SDS011;63446;56.272;43.922;2024-02-21T06:25:50;9.63;;;3.10;;
74892;SDS011;63446;56.272;43.922;2024-02-21T06:32:28;10.88;;;2.97;;
74892;SDS011;63446;56.272;43.922;2024-02-21T06:39:18;7.37;;;3.00;;
74892;SDS011;63446;56.272;43.922;2024-02-21T06:46:08;7.28;;;2.72;;
74892;SDS011;63446;56.272;43.922;2024-02-21T06:52:58;4.95;;;1.60;;
74892;SDS011;63446;56.272;43.922;2024-02-21T07:04:00;4.07;;;1.20;;
74892;SDS011;63446;56.272;43.922;2024-02-21T07:10:39;4.55;;;1.50;;
74892;SDS011;63446;56.272;43.922;2024-02-21T07:17:30;7.18;;;2.10;;
74892;SDS011;63446;56.272;43.922;2024-02-21T07:24:22;4.90;;;1.67;;
74892;SDS011;63446;56.272;43.922;2024-02-21T07:31:11;5.20;;;1.53;;
74892;SDS011;63446;56.272;43.922;2024-02-21T07:33:38;5.13;;;1.67;;
74892;SDS011;63446;56.272;43.922;2024-02-21T07:40:22;8.55;;;1.95;;
74892;SDS011;63446;56.272;43.922;2024-02-21T07:46:59;5.75;;;1.75;;
74892;SDS011;63446;56.272;43.922;2024-02-21T07:53:49;6.15;;;1.95;;
74892;SDS011;63446;56.272;43.922;2024-02-21T08:05:10;9.63;;;2.33;;
74892;SDS011;63446;56.272;43.922;2024-02-21T08:12:02;11.93;;;2.88;;
74892;SDS011;63446;56.272;43.922;2024-02-21T08:18:52;8.70;;;2.80;;
74892;SDS011;63446;56.272;43.922;2024-02-21T08:21:18;9.33;;;2.63;;
74892;SDS011;63446;56.272;43.922;2024-02-21T08:28:02;5.90;;;2.93;;
74892;SDS011;63446;56.272;43.922;2024-02-21T08:34:46;10.88;;;3.30;;
74892;SDS011;63446;56.272;43.922;2024-02-21T08:37:13;10.30;;;3.70;;
74892;SDS011;63446;56.272;43.922;2024-02-21T08:39:38;7.53;;;3.30;;
74892;SDS011;63446;56.272;43.922;2024-02-21T08:46:17;6.07;;;2.22;;
74892;SDS011;63446;56.272;43.922;2024-02-21T08:48:43;8.20;;;3.22;;
74892;SDS011;63446;56.272;43.922;2024-02-21T08:55:30;11.77;;;4.65;;
74892;SDS011;63446;56.272;43.922;2024-02-21T09:02:15;10.05;;;3.50;;
74892;SDS011;63446;56.272;43.922;2024-02-21T09:09:07;5.87;;;1.90;;
74892;SDS011;63446;56.272;43.922;2024-02-21T09:15:55;8.55;;;3.22;;
74892;SDS011;63446;56.272;43.922;2024-02-21T09:22:34;5.88;;;2.20;;
74892;SDS011;63446;56.272;43.922;2024-02-21T09:29:26;6.20;;;2.70;;
74892;SDS011;63446;56.272;43.922;2024-02-21T09:31:53;6.05;;;2.55;;
74892;SDS011;63446;56.272;43.922;2024-02-21T09:34:21;5.53;;;1.90;;
74892;SDS011;63446;56.272;43.922;2024-02-21T09:36:47;4.63;;;1.90;;
74892;SDS011;63446;56.272;43.922;2024-02-21T09:39:12;5.45;;;1.73;;
74892;SDS011;63446;56.272;43.922;2024-02-21T09:41:41;5.25;;;1.85;;
74892;SDS011;63446;56.272;43.922;2024-02-21T09:44:14;5.88;;;1.88;;
74892;SDS011;63446;56.272;43.922;2024-02-21T09:46:45;6.70;;;2.30;;
74892;SDS011;63446;56.272;43.922;2024-02-21T09:49:30;5.72;;;2.03;;
74892;SDS011;63446;56.272;43.922;2024-02-21T09:52:00;6.10;;;2.40;;
74892;SDS011;63446;56.272;43.922;2024-02-21T09:54:30;6.15;;;2.35;;
74892;SDS011;63446;56.272;43.922;2024-02-21T09:56:58;6.60;;;2.43;;
74892;SDS011;63446;56.272;43.922;2024-02-21T09:59:25;7.63;;;2.92;;
74892;SDS011;63446;56.272;43.922;2024-02-21T10:01:53;6.93;;;2.67;;
74892;SDS011;63446;56.272;43.922;2024-02-21T10:04:23;6.70;;;2.65;;
74892;SDS011;63446;56.272;43.922;2024-02-21T10:06:49;6.85;;;2.50;;
74892;SDS011;63446;56.272;43.922;2024-02-21T10:09:25;6.43;;;2.40;;
74892;SDS011;63446;56.272;43.922;2024-02-21T10:11:55;5.15;;;2.10;;
74892;SDS011;63446;56.272;43.922;2024-02-21T10:14:32;6.25;;;2.05;;
74892;SDS011;63446;56.272;43.922;2024-02-21T10:16:58;9.00;;;2.53;;
74892;SDS011;63446;56.272;43.922;2024-02-21T10:19:24;7.22;;;1.85;;
74892;SDS011;63446;56.272;43.922;2024-02-21T10:22:04;5.75;;;2.20;;
74892;SDS011;63446;56.272;43.922;2024-02-21T10:24:36;7.97;;;3.00;;
74892;SDS011;63446;56.272;43.922;2024-02-21T10:27:09;8.98;;;2.50;;
74892;SDS011;63446;56.272;43.922;2024-02-21T10:29:38;5.03;;;1.80;;
74892;SDS011;63446;56.272;43.922;2024-02-21T10:32:12;4.00;;;1.77;;
74892;SDS011;63446;56.272;43.922;2024-02-21T10:34:40;6.15;;;2.00;;
74892;SDS011;63446;56.272;43.922;2024-02-21T10:37:08;5.97;;;1.95;;
74892;SDS011;63446;56.272;43.922;2024-02-21T10:39:39;5.90;;;1.90;;
74892;SDS011;63446;56.272;43.922;2024-02-21T10:42:06;4.80;;;1.70;;
74892;SDS011;63446;56.272;43.922;2024-02-21T10:44:38;5.15;;;1.80;;
74892;SDS011;63446;56.272;43.922;2024-02-21T10:47:08;6.53;;;1.88;;
74892;SDS011;63446;56.272;43.922;2024-02-21T10:49:38;5.25;;;1.73;;
74892;SDS011;63446;56.272;43.922;2024-02-21T10:57:06;5.18;;;1.98;;
74892;SDS011;63446;56.272;43.922;2024-02-21T10:59:32;5.22;;;1.70;;
74892;SDS011;63446;56.272;43.922;2024-02-21T11:02:00;11.23;;;2.85;;
74892;SDS011;63446;56.272;43.922;2024-02-21T11:04:26;8.73;;;2.78;;
74892;SDS011;63446;56.272;43.922;2024-02-21T11:06:53;5.90;;;2.60;;
74892;SDS011;63446;56.272;43.922;2024-02-21T11:09:19;5.72;;;2.40;;
74892;SDS011;63446;56.272;43.922;2024-02-21T11:11:56;11.27;;;2.30;;
74892;SDS011;63446;56.272;43.922;2024-02-21T11:14:25;5.03;;;2.13;;
74892;SDS011;63446;56.272;43.922;2024-02-21T11:16:52;5.53;;;2.47;;
74892;SDS011;63446;56.272;43.922;2024-02-21T11:21:44;5.07;;;2.30;;
74892;SDS011;63446;56.272;43.922;2024-02-21T11:24:09;5.88;;;2.67;;
74892;SDS011;63446;56.272;43.922;2024-02-21T11:26:36;6.88;;;2.30;;
74892;SDS011;63446;56.272;43.922;2024-02-21T11:29:03;9.87;;;3.30;;
74892;SDS011;63446;56.272;43.922;2024-02-21T11:31:42;7.60;;;2.75;;
74892;SDS011;63446;56.272;43.922;2024-02-21T11:34:11;5.75;;;2.40;;
74892;SDS011;63446;56.272;43.922;2024-02-21T11:36:47;6.20;;;2.20;;
74892;SDS011;63446;56.272;43.922;2024-02-21T11:41:59;7.73;;;2.63;;
74892;SDS011;63446;56.272;43.922;2024-02-21T11:44:29;6.88;;;2.40;;
74892;SDS011;63446;56.272;43.922;2024-02-21T11:46:57;6.72;;;2.33;;
74892;SDS011;63446;56.272;43.922;2024-02-21T11:49:29;7.95;;;2.45;;
74892;SDS011;63446;56.272;43.922;2024-02-21T11:52:02;6.80;;;1.98;;
74892;SDS011;63446;56.272;43.922;2024-02-21T11:54:30;6.77;;;2.10;;
74892;SDS011;63446;56.272;43.922;2024-02-21T11:56:57;7.82;;;2.40;;
74892;SDS011;63446;56.272;43.922;2024-02-21T11:59:23;7.20;;;2.20;;
74892;SDS011;63446;56.272;43.922;2024-02-21T12:01:49;4.88;;;1.90;;
74892;SDS011;63446;56.272;43.922;2024-02-21T12:04:18;6.97;;;1.90;;
74892;SDS011;63446;56.272;43.922;2024-02-21T12:06:49;9.05;;;2.47;;
74892;SDS011;63446;56.272;43.922;2024-02-21T12:09:15;5.65;;;2.00;;
74892;SDS011;63446;56.272;43.922;2024-02-21T12:11:42;5.50;;;2.00;;
74892;SDS011;63446;56.272;43.922;2024-02-21T12:14:09;6.53;;;2.03;;
74892;SDS011;63446;56.272;43.922;2024-02-21T12:16:35;7.32;;;1.60;;
74892;SDS011;63446;56.272;43.922;2024-02-21T12:19:03;3.78;;;1.25;;
74892;SDS011;63446;56.272;43.922;2024-02-21T12:21:30;5.78;;;1.60;;
74892;SDS011;63446;56.272;43.922;2024-02-21T12:23:59;5.87;;;1.83;;
74892;SDS011;63446;56.272;43.922;2024-02-21T12:26:26;4.20;;;1.20;;
74892;SDS011;63446;56.272;43.922;2024-02-21T12:28:53;4.93;;;1.40;;
74892;SDS011;63446;56.272;43.922;2024-02-21T12:31:20;5.13;;;1.30;;
74892;SDS011;63446;56.272;43.922;2024-02-21T12:33:47;3.90;;;1.20;;
74892;SDS011;63446;56.272;43.922;2024-02-21T12:36:13;3.87;;;1.20;;
74892;SDS011;63446;56.272;43.922;2024-02-21T12:38:41;3.22;;;0.90;;
74892;SDS011;63446;56.272;43.922;2024-02-21T12:41:07;5.53;;;1.60;;
74892;SDS011;63446;56.272;43.922;2024-02-21T12:43:34;3.90;;;1.45;;
74892;SDS011;63446;56.272;43.922;2024-02-21T12:46:00;4.17;;;1.47;;
74892;SDS011;63446;56.272;43.922;2024-02-21T12:48:26;8.25;;;2.38;;
74892;SDS011;63446;56.272;43.922;2024-02-21T12:50:51;5.37;;;1.83;;
74892;SDS011;63446;56.272;43.922;2024-02-21T12:53:18;7.57;;;2.10;;
74892;SDS011;63446;56.272;43.922;2024-02-21T12:55:49;4.15;;;1.75;;
74892;SDS011;63446;56.272;43.922;2024-02-21T12:58:16;4.30;;;1.52;;
74892;SDS011;63446;56.272;43.922;2024-02-21T13:00:42;4.38;;;1.65;;
74892;SDS011;63446;56.272;43.922;2024-02-21T13:03:09;6.07;;;2.00;;
74892;SDS011;63446;56.272;43.922;2024-02-21T13:05:37;5.05;;;1.75;;
74892;SDS011;63446;56.272;43.922;2024-02-21T13:08:08;5.75;;;1.73;;
74892;SDS011;63446;56.272;43.922;2024-02-21T13:10:35;4.60;;;1.55;;
74892;SDS011;63446;56.272;43.922;2024-02-21T13:13:02;3.93;;;1.30;;
74892;SDS011;63446;56.272;43.922;2024-02-21T13:15:28;4.63;;;1.52;;
74892;SDS011;63446;56.272;43.922;2024-02-21T13:17:58;5.18;;;1.83;;
74892;SDS011;63446;56.272;43.922;2024-02-21T13:20:25;5.97;;;1.70;;
74892;SDS011;63446;56.272;43.922;2024-02-21T13:22:52;5.18;;;1.60;;
74892;SDS011;63446;56.272;43.922;2024-02-21T13:25:19;8.93;;;1.80;;
74892;SDS011;63446;56.272;43.922;2024-02-21T13:27:47;4.82;;;1.70;;
74892;SDS011;63446;56.272;43.922;2024-02-21T13:30:14;5.35;;;1.67;;
74892;SDS011;63446;56.272;43.922;2024-02-21T13:32:41;4.88;;;1.63;;
74892;SDS011;63446;56.272;43.922;2024-02-21T13:35:08;4.88;;;1.40;;
74892;SDS011;63446;56.272;43.922;2024-02-21T13:37:37;4.87;;;1.37;;
74892;SDS011;63446;56.272;43.922;2024-02-21T13:40:07;4.05;;;1.33;;
74892;SDS011;63446;56.272;43.922;2024-02-21T13:42:36;4.72;;;1.40;;
74892;SDS011;63446;56.272;43.922;2024-02-21T13:45:03;5.05;;;1.70;;
74892;SDS011;63446;56.272;43.922;2024-02-21T13:47:31;5.80;;;1.92;;
74892;SDS011;63446;56.272;43.922;2024-02-21T13:50:02;5.73;;;1.60;;
74892;SDS011;63446;56.272;43.922;2024-02-21T13:52:37;5.60;;;1.88;;
74892;SDS011;63446;56.272;43.922;2024-02-21T13:55:04;5.22;;;1.70;;
74892;SDS011;63446;56.272;43.922;2024-02-21T13:57:30;5.95;;;1.80;;
74892;SDS011;63446;56.272;43.922;2024-02-21T13:59:55;4.43;;;1.53;;
74892;SDS011;63446;56.272;43.922;2024-02-21T14:02:22;8.10;;;2.15;;
74892;SDS011;63446;56.272;43.922;2024-02-21T14:04:50;6.00;;;1.95;;
74892;SDS011;63446;56.272;43.922;2024-02-21T14:07:16;3.80;;;1.30;;
74892;SDS011;63446;56.272;43.922;2024-02-21T14:09:42;4.97;;;1.60;;
74892;SDS011;63446;56.272;43.922;2024-02-21T14:12:09;5.35;;;1.73;;
74892;SDS011;63446;56.272;43.922;2024-02-21T14:14:35;5.30;;;1.60;;
74892;SDS011;63446;56.272;43.922;2024-02-21T14:17:03;7.03;;;1.97;;
74892;SDS011;63446;56.272;43.922;2024-02-21T14:19:32;6.05;;;2.03;;
74892;SDS011;63446;56.272;43.922;2024-02-21T14:21:58;6.53;;;2.10;;
74892;SDS011;63446;56.272;43.922;2024-02-21T14:24:24;4.40;;;1.70;;
74892;SDS011;63446;56.272;43.922;2024-02-21T14:26:49;5.55;;;2.13;;
74892;SDS011;63446;56.272;43.922;2024-02-21T14:29:15;5.93;;;1.83;;
74892;SDS011;63446;56.272;43.922;2024-02-21T14:31:41;9.90;;;2.45;;
74892;SDS011;63446;56.272;43.922;2024-02-21T14:34:08;5.50;;;2.30;;
74892;SDS011;63446;56.272;43.922;2024-02-21T14:36:34;7.13;;;2.20;;
74892;SDS011;63446;56.272;43.922;2024-02-21T14:39:00;7.05;;;2.08;;
74892;SDS011;63446;56.272;43.922;2024-02-21T14:41:26;5.70;;;1.95;;
74892;SDS011;63446;56.272;43.922;2024-02-21T14:43:52;6.20;;;2.27;;
74892;SDS011;63446;56.272;43.922;2024-02-21T14:46:19;6.82;;;1.90;;
74892;SDS011;63446;56.272;43.922;2024-02-21T14:48:45;7.90;;;2.33;;
74892;SDS011;63446;56.272;43.922;2024-02-21T14:51:12;7.32;;;1.95;;
74892;SDS011;63446;56.272;43.922;2024-02-21T14:53:39;11.38;;;2.10;;
74892;SDS011;63446;56.272;43.922;2024-02-21T14:56:05;5.73;;;1.87;;
74892;SDS011;63446;56.272;43.922;2024-02-21T14:58:32;4.32;;;1.40;;
74892;SDS011;63446;56.272;43.922;2024-02-21T15:00:58;4.90;;;1.90;;
74892;SDS011;63446;56.272;43.922;2024-02-21T15:03:26;7.47;;;2.07;;
74892;SDS011;63446;56.272;43.922;2024-02-21T15:05:53;6.30;;;2.15;;
74892;SDS011;63446;56.272;43.922;2024-02-21T15:08:19;5.93;;;1.88;;
74892;SDS011;63446;56.272;43.922;2024-02-21T15:10:45;6.43;;;2.08;;
74892;SDS011;63446;56.272;43.922;2024-02-21T15:13:11;6.27;;;1.57;;
74892;SDS011;63446;56.272;43.922;2024-02-21T15:15:37;5.53;;;2.00;;
74892;SDS011;63446;56.272;43.922;2024-02-21T15:18:03;5.90;;;2.07;;
74892;SDS011;63446;56.272;43.922;2024-02-21T15:20:29;5.95;;;2.25;;
74892;SDS011;63446;56.272;43.922;2024-02-21T15:22:55;6.85;;;2.30;;
74892;SDS011;63446;56.272;43.922;2024-02-21T15:25:21;6.50;;;2.23;;
74892;SDS011;63446;56.272;43.922;2024-02-21T15:27:47;6.22;;;2.30;;
74892;SDS011;63446;56.272;43.922;2024-02-21T15:30:14;9.05;;;2.35;;
74892;SDS011;63446;56.272;43.922;2024-02-21T15:32:42;6.15;;;2.20;;
74892;SDS011;63446;56.272;43.922;2024-02-21T15:35:09;9.90;;;2.60;;
74892;SDS011;63446;56.272;43.922;2024-02-21T15:37:39;9.67;;;2.30;;
74892;SDS011;63446;56.272;43.922;2024-02-21T15:40:06;7.78;;;2.25;;
74892;SDS011;63446;56.272;43.922;2024-02-21T15:42:33;7.82;;;2.63;;
74892;SDS011;63446;56.272;43.922;2024-02-21T15:44:59;9.23;;;2.72;;
74892;SDS011;63446;56.272;43.922;2024-02-21T15:47:27;8.73;;;2.80;;
74892;SDS011;63446;56.272;43.922;2024-02-21T15:49:53;6.27;;;2.57;;
74892;SDS011;63446;56.272;43.922;2024-02-21T15:52:19;7.47;;;2.78;;
74892;SDS011;63446;56.272;43.922;2024-02-21T15:54:47;7.55;;;2.80;;
74892;SDS011;63446;56.272;43.922;2024-02-21T15:57:13;11.23;;;3.20;;
74892;SDS011;63446;56.272;43.922;2024-02-21T15:59:39;11.77;;;3.13;;
74892;SDS011;63446;56.272;43.922;2024-02-21T16:02:07;9.27;;;3.25;;
74892;SDS011;63446;56.272;43.922;2024-02-21T16:04:32;9.52;;;3.50;;
74892;SDS011;63446;56.272;43.922;2024-02-21T16:07:01;9.18;;;3.08;;
74892;SDS011;63446;56.272;43.922;2024-02-21T16:09:28;10.52;;;3.25;;
74892;SDS011;63446;56.272;43.922;2024-02-21T16:11:54;13.45;;;3.85;;
74892;SDS011;63446;56.272;43.922;2024-02-21T16:14:20;11.20;;;4.78;;
74892;SDS011;63446;56.272;43.922;2024-02-21T16:16:47;12.40;;;3.83;;
74892;SDS011;63446;56.272;43.922;2024-02-21T16:19:14;12.65;;;3.67;;
74892;SDS011;63446;56.272;43.922;2024-02-21T16:21:40;9.85;;;3.42;;
74892;SDS011;63446;56.272;43.922;2024-02-21T16:24:08;9.18;;;3.40;;
74892;SDS011;63446;56.272;43.922;2024-02-21T16:26:36;11.05;;;3.60;;
74892;SDS011;63446;56.272;43.922;2024-02-21T16:29:02;8.80;;;3.43;;
74892;SDS011;63446;56.272;43.922;2024-02-21T16:31:30;9.77;;;3.10;;
74892;SDS011;63446;56.272;43.922;2024-02-21T16:33:56;6.85;;;2.70;;
74892;SDS011;63446;56.272;43.922;2024-02-21T16:36:22;10.38;;;3.17;;
74892;SDS011;63446;56.272;43.922;2024-02-21T16:38:51;8.40;;;3.10;;
74892;SDS011;63446;56.272;43.922;2024-02-21T16:41:20;9.00;;;2.42;;
74892;SDS011;63446;56.272;43.922;2024-02-21T16:43:47;8.95;;;3.05;;
74892;SDS011;63446;56.272;43.922;2024-02-21T16:46:14;6.75;;;2.50;;
74892;SDS011;63446;56.272;43.922;2024-02-21T16:48:40;7.00;;;2.67;;
74892;SDS011;63446;56.272;43.922;2024-02-21T16:51:07;7.13;;;2.60;;
74892;SDS011;63446;56.272;43.922;2024-02-21T16:53:37;8.45;;;2.90;;
74892;SDS011;63446;56.272;43.922;2024-02-21T16:56:02;12.48;;;3.47;;
74892;SDS011;63446;56.272;43.922;2024-02-21T16:58:30;8.25;;;2.90;;
74892;SDS011;63446;56.272;43.922;2024-02-21T17:01:04;8.80;;;2.70;;
74892;SDS011;63446;56.272;43.922;2024-02-21T17:03:33;8.73;;;2.97;;
74892;SDS011;63446;56.272;43.922;2024-02-21T17:05:59;14.43;;;3.03;;
74892;SDS011;63446;56.272;43.922;2024-02-21T17:08:25;8.85;;;2.88;;
74892;SDS011;63446;56.272;43.922;2024-02-21T17:10:52;9.00;;;3.20;;
74892;SDS011;63446;56.272;43.922;2024-02-21T17:13:19;8.55;;;3.03;;
74892;SDS011;63446;56.272;43.922;2024-02-21T17:15:46;8.20;;;3.00;;
74892;SDS011;63446;56.272;43.922;2024-02-21T17:18:15;7.15;;;2.58;;
74892;SDS011;63446;56.272;43.922;2024-02-21T17:20:42;6.67;;;2.57;;
74892;SDS011;63446;56.272;43.922;2024-02-21T17:23:09;8.60;;;2.42;;
74892;SDS011;63446;56.272;43.922;2024-02-21T17:25:38;7.55;;;2.50;;
74892;SDS011;63446;56.272;43.922;2024-02-21T17:28:07;8.93;;;2.55;;
74892;SDS011;63446;56.272;43.922;2024-02-21T17:30:33;6.85;;;2.00;;
74892;SDS011;63446;56.272;43.922;2024-02-21T17:33:03;6.73;;;2.30;;
74892;SDS011;63446;56.272;43.922;2024-02-21T17:35:29;8.18;;;2.30;;
74892;SDS011;63446;56.272;43.922;2024-02-21T17:37:56;5.53;;;1.92;;
74892;SDS011;63446;56.272;43.922;2024-02-21T17:40:22;9.90;;;2.57;;
74892;SDS011;63446;56.272;43.922;2024-02-21T17:42:48;9.05;;;2.67;;
74892;SDS011;63446;56.272;43.922;2024-02-21T17:45:13;7.95;;;2.67;;
74892;SDS011;63446;56.272;43.922;2024-02-21T17:47:40;7.37;;;2.80;;
74892;SDS011;63446;56.272;43.922;2024-02-21T17:50:06;7.65;;;2.17;;
74892;SDS011;63446;56.272;43.922;2024-02-21T17:52:33;8.02;;;2.33;;
74892;SDS011;63446;56.272;43.922;2024-02-21T17:54:59;8.37;;;2.70;;
74892;SDS011;63446;56.272;43.922;2024-02-21T17:57:25;11.45;;;2.42;;
74892;SDS011;63446;56.272;43.922;2024-02-21T17:59:52;7.13;;;2.70;;
74892;SDS011;63446;56.272;43.922;2024-02-21T18:02:18;10.77;;;2.73;;
74892;SDS011;63446;56.272;43.922;2024-02-21T18:04:46;11.30;;;2.95;;
74892;SDS011;63446;56.272;43.922;2024-02-21T18:07:13;8.07;;;2.70;;
74892;SDS011;63446;56.272;43.922;2024-02-21T18:09:40;9.18;;;2.60;;
74892;SDS011;63446;56.272;43.922;2024-02-21T18:12:06;10.40;;;3.00;;
74892;SDS011;63446;56.272;43.922;2024-02-21T18:14:33;11.18;;;2.72;;
74892;SDS011;63446;56.272;43.922;2024-02-21T18:16:59;10.90;;;2.85;;
74892;SDS011;63446;56.272;43.922;2024-02-21T18:19:24;9.43;;;2.87;;
74892;SDS011;63446;56.272;43.922;2024-02-21T18:21:50;9.85;;;2.92;;
74892;SDS011;63446;56.272;43.922;2024-02-21T18:24:17;10.37;;;2.60;;
74892;SDS011;63446;56.272;43.922;2024-02-21T18:26:42;8.63;;;3.10;;
74892;SDS011;63446;56.272;43.922;2024-02-21T18:29:08;8.50;;;3.03;;
74892;SDS011;63446;56.272;43.922;2024-02-21T18:31:36;9.02;;;2.47;;
74892;SDS011;63446;56.272;43.922;2024-02-21T18:34:03;11.47;;;3.30;;
74892;SDS011;63446;56.272;43.922;2024-02-21T18:36:30;8.82;;;2.97;;
74892;SDS011;63446;56.272;43.922;2024-02-21T18:38:56;8.13;;;2.92;;
74892;SDS011;63446;56.272;43.922;2024-02-21T18:41:22;10.23;;;3.17;;
74892;SDS011;63446;56.272;43.922;2024-02-21T18:43:48;14.40;;;2.80;;
74892;SDS011;63446;56.272;43.922;2024-02-21T18:46:14;10.48;;;3.47;;
74892;SDS011;63446;56.272;43.922;2024-02-21T18:48:40;9.82;;;2.95;;
74892;SDS011;63446;56.272;43.922;2024-02-21T18:51:12;11.77;;;3.50;;
74892;SDS011;63446;56.272;43.922;2024-02-21T18:53:39;8.95;;;2.90;;
74892;SDS011;63446;56.272;43.922;2024-02-21T18:56:09;11.50;;;3.20;;
74892;SDS011;63446;56.272;43.922;2024-02-21T18:58:37;14.02;;;3.58;;
74892;SDS011;63446;56.272;43.922;2024-02-21T19:01:03;11.03;;;3.10;;
74892;SDS011;63446;56.272;43.922;2024-02-21T19:03:29;10.18;;;3.28;;
74892;SDS011;63446;56.272;43.922;2024-02-21T19:05:55;10.18;;;3.65;;
74892;SDS011;63446;56.272;43.922;2024-02-21T19:08:22;13.23;;;3.78;;
74892;SDS011;63446;56.272;43.922;2024-02-21T19:10:48;11.07;;;4.00;;
74892;SDS011;63446;56.272;43.922;2024-02-21T19:13:14;8.93;;;3.37;;
74892;SDS011;63446;56.272;43.922;2024-02-21T19:15:40;9.93;;;3.63;;
74892;SDS011;63446;56.272;43.922;2024-02-21T19:18:13;10.45;;;3.72;;
74892;SDS011;63446;56.272;43.922;2024-02-21T19:20:39;10.07;;;3.53;;
74892;SDS011;63446;56.272;43.922;2024-02-21T19:23:05;11.73;;;3.63;;
74892;SDS011;63446;56.272;43.922;2024-02-21T19:25:32;13.43;;;3.72;;
74892;SDS011;63446;56.272;43.922;2024-02-21T19:27:59;10.90;;;3.13;;
74892;SDS011;63446;56.272;43.922;2024-02-21T19:30:25;12.47;;;3.40;;
74892;SDS011;63446;56.272;43.922;2024-02-21T19:32:53;14.00;;;3.25;;
74892;SDS011;63446;56.272;43.922;2024-02-21T19:35:18;8.98;;;2.85;;
74892;SDS011;63446;56.272;43.922;2024-02-21T19:37:44;11.00;;;2.93;;
74892;SDS011;63446;56.272;43.922;2024-02-21T19:40:10;9.85;;;3.15;;
74892;SDS011;63446;56.272;43.922;2024-02-21T19:42:38;12.98;;;3.50;;
74892;SDS011;63446;56.272;43.922;2024-02-21T19:45:06;10.80;;;2.65;;
74892;SDS011;63446;56.272;43.922;2024-02-21T19:47:32;12.87;;;3.10;;
74892;SDS011;63446;56.272;43.922;2024-02-21T19:49:58;15.80;;;3.50;;
74892;SDS011;63446;56.272;43.922;2024-02-21T19:52:26;11.27;;;3.17;;
74892;SDS011;63446;56.272;43.922;2024-02-21T19:54:52;9.05;;;3.40;;
74892;SDS011;63446;56.272;43.922;2024-02-21T19:57:19;9.50;;;3.05;;
74892;SDS011;63446;56.272;43.922;2024-02-21T19:59:49;10.20;;;3.23;;
74892;SDS011;63446;56.272;43.922;2024-02-21T20:02:16;10.40;;;2.95;;
74892;SDS011;63446;56.272;43.922;2024-02-21T20:04:41;9.98;;;3.30;;
74892;SDS011;63446;56.272;43.922;2024-02-21T20:07:07;10.07;;;3.20;;
74892;SDS011;63446;56.272;43.922;2024-02-21T20:09:34;9.07;;;2.70;;
74892;SDS011;63446;56.272;43.922;2024-02-21T20:12:02;9.90;;;3.17;;
74892;SDS011;63446;56.272;43.922;2024-02-21T20:14:29;13.40;;;3.37;;
74892;SDS011;63446;56.272;43.922;2024-02-21T20:16:55;13.50;;;3.40;;
74892;SDS011;63446;56.272;43.922;2024-02-21T20:19:21;10.38;;;3.00;;
74892;SDS011;63446;56.272;43.922;2024-02-21T20:21:47;10.60;;;2.93;;
74892;SDS011;63446;56.272;43.922;2024-02-21T20:24:15;10.73;;;2.97;;
74892;SDS011;63446;56.272;43.922;2024-02-21T20:26:42;8.77;;;2.92;;
74892;SDS011;63446;56.272;43.922;2024-02-21T20:29:10;17.15;;;3.45;;
74892;SDS011;63446;56.272;43.922;2024-02-21T20:31:41;15.07;;;2.77;;
74892;SDS011;63446;56.272;43.922;2024-02-21T20:34:11;14.15;;;3.30;;
74892;SDS011;63446;56.272;43.922;2024-02-21T20:36:38;13.07;;;3.30;;
74892;SDS011;63446;56.272;43.922;2024-02-21T20:39:05;8.30;;;2.85;;
74892;SDS011;63446;56.272;43.922;2024-02-21T20:41:35;16.50;;;3.55;;
74892;SDS011;63446;56.272;43.922;2024-02-21T20:44:02;13.03;;;4.03;;